sensor_id;sensor_type;location;lat;lon;timestamp;temperature;humidity
13322;DHT22;6730;46.248;6.930;2022-12-18T00:01:45;0.40;99.90
13322;DHT22;6730;46.248;6.930;2022-12-18T00:04:25;0.40;99.90
13322;DHT22;6730;46.248;6.930;2022-12-18T00:06:52;0.40;99.90
13322;DHT22;6730;46.248;6.930;2022-12-18T00:09:18;0.30;99.90
13322;DHT22;6730;46.248;6.930;2022-12-18T00:11:44;0.30;99.90
13322;DHT22;6730;46.248;6.930;2022-12-18T00:14:12;0.30;99.90
13322;DHT22;6730;46.248;6.930;2022-12-18T00:16:44;0.10;99.90
13322;DHT22;6730;46.248;6.930;2022-12-18T00:19:10;0.00;99.90
13322;DHT22;6730;46.248;6.930;2022-12-18T00:21:36;-0.10;99.90
13322;DHT22;6730;46.248;6.930;2022-12-18T00:24:05;-0.20;99.90
13322;DHT22;6730;46.248;6.930;2022-12-18T00:26:33;-0.30;99.90
13322;DHT22;6730;46.248;6.930;2022-12-18T00:29:07;-0.30;99.90
13322;DHT22;6730;46.248;6.930;2022-12-18T00:31:34;-0.20;99.90
13322;DHT22;6730;46.248;6.930;2022-12-18T00:33:59;-0.20;99.90
13322;DHT22;6730;46.248;6.930;2022-12-18T00:36:28;-0.20;99.90
13322;DHT22;6730;46.248;6.930;2022-12-18T00:38:56;-0.20;99.90
13322;DHT22;6730;46.248;6.930;2022-12-18T00:41:22;-0.20;99.90
13322;DHT22;6730;46.248;6.930;2022-12-18T00:44:08;-0.20;99.90
13322;DHT22;6730;46.248;6.930;2022-12-18T00:46:34;-0.10;99.90
13322;DHT22;6730;46.248;6.930;2022-12-18T00:49:00;0.10;99.90
13322;DHT22;6730;46.248;6.930;2022-12-18T00:51:26;0.30;99.90
13322;DHT22;6730;46.248;6.930;2022-12-18T00:53:52;0.20;99.90
13322;DHT22;6730;46.248;6.930;2022-12-18T00:56:18;0.20;99.90
13322;DHT22;6730;46.248;6.930;2022-12-18T00:58:47;0.30;99.90
13322;DHT22;6730;46.248;6.930;2022-12-18T01:01:13;0.40;99.90
13322;DHT22;6730;46.248;6.930;2022-12-18T01:03:39;0.20;99.90
13322;DHT22;6730;46.248;6.930;2022-12-18T01:06:09;0.10;99.90
13322;DHT22;6730;46.248;6.930;2022-12-18T01:08:36;-0.10;99.90
13322;DHT22;6730;46.248;6.930;2022-12-18T01:11:12;-0.20;99.90
13322;DHT22;6730;46.248;6.930;2022-12-18T01:13:38;-0.20;99.90
13322;DHT22;6730;46.248;6.930;2022-12-18T01:16:04;-0.30;99.90
13322;DHT22;6730;46.248;6.930;2022-12-18T01:18:30;-0.40;99.90
13322;DHT22;6730;46.248;6.930;2022-12-18T01:20:56;-0.30;99.90
13322;DHT22;6730;46.248;6.930;2022-12-18T01:23:22;-0.40;99.90
13322;DHT22;6730;46.248;6.930;2022-12-18T01:25:47;-0.20;99.90
13322;DHT22;6730;46.248;6.930;2022-12-18T01:28:13;0.20;99.90
13322;DHT22;6730;46.248;6.930;2022-12-18T01:30:39;0.30;99.90
13322;DHT22;6730;46.248;6.930;2022-12-18T01:33:05;0.20;99.90
13322;DHT22;6730;46.248;6.930;2022-12-18T01:35:31;0.20;99.90
13322;DHT22;6730;46.248;6.930;2022-12-18T01:37:57;0.50;99.90
13322;DHT22;6730;46.248;6.930;2022-12-18T01:40:23;0.20;99.90
13322;DHT22;6730;46.248;6.930;2022-12-18T01:42:52;-0.10;99.90
13322;DHT22;6730;46.248;6.930;2022-12-18T01:47:52;0.10;99.90
13322;DHT22;6730;46.248;6.930;2022-12-18T01:50:45;0.00;99.90
13322;DHT22;6730;46.248;6.930;2022-12-18T01:53:19;-0.10;99.90
13322;DHT22;6730;46.248;6.930;2022-12-18T01:55:54;0.10;99.90
13322;DHT22;6730;46.248;6.930;2022-12-18T01:58:29;0.20;99.90
13322;DHT22;6730;46.248;6.930;2022-12-18T02:00:57;0.00;99.90
13322;DHT22;6730;46.248;6.930;2022-12-18T02:03:23;-0.10;99.90
13322;DHT22;6730;46.248;6.930;2022-12-18T02:06:05;-0.20;99.90
13322;DHT22;6730;46.248;6.930;2022-12-18T02:16:37;-0.10;99.90
13322;DHT22;6730;46.248;6.930;2022-12-18T02:22:25;-0.40;99.90
13322;DHT22;6730;46.248;6.930;2022-12-18T02:28:01;-0.30;99.90
13322;DHT22;6730;46.248;6.930;2022-12-18T02:30:30;-0.20;99.90
13322;DHT22;6730;46.248;6.930;2022-12-18T02:32:58;-0.30;99.90
13322;DHT22;6730;46.248;6.930;2022-12-18T02:35:26;-0.30;99.90
13322;DHT22;6730;46.248;6.930;2022-12-18T02:37:53;-0.50;99.90
13322;DHT22;6730;46.248;6.930;2022-12-18T02:40:19;-0.50;99.90
13322;DHT22;6730;46.248;6.930;2022-12-18T02:42:46;-0.40;99.90
13322;DHT22;6730;46.248;6.930;2022-12-18T02:45:11;-0.30;99.90
13322;DHT22;6730;46.248;6.930;2022-12-18T02:47:40;-0.40;99.90
13322;DHT22;6730;46.248;6.930;2022-12-18T02:50:14;-0.40;99.90
13322;DHT22;6730;46.248;6.930;2022-12-18T02:59:07;-0.50;99.90
13322;DHT22;6730;46.248;6.930;2022-12-18T03:08:43;-0.50;99.90
13322;DHT22;6730;46.248;6.930;2022-12-18T03:11:11;-0.50;99.90
13322;DHT22;6730;46.248;6.930;2022-12-18T03:13:50;-0.30;99.90
13322;DHT22;6730;46.248;6.930;2022-12-18T03:16:24;-0.40;99.90
13322;DHT22;6730;46.248;6.930;2022-12-18T03:19:00;-0.20;99.90
13322;DHT22;6730;46.248;6.930;2022-12-18T03:21:32;-0.20;99.90
13322;DHT22;6730;46.248;6.930;2022-12-18T03:23:59;-0.20;99.90
13322;DHT22;6730;46.248;6.930;2022-12-18T03:26:28;-0.10;99.90
13322;DHT22;6730;46.248;6.930;2022-12-18T03:29:02;-0.20;99.90
13322;DHT22;6730;46.248;6.930;2022-12-18T03:31:31;-0.30;99.90
13322;DHT22;6730;46.248;6.930;2022-12-18T03:34:19;-0.40;99.90
13322;DHT22;6730;46.248;6.930;2022-12-18T03:36:46;-0.50;99.90
13322;DHT22;6730;46.248;6.930;2022-12-18T03:39:12;-0.50;99.90
13322;DHT22;6730;46.248;6.930;2022-12-18T03:44:13;-0.50;99.90
13322;DHT22;6730;46.248;6.930;2022-12-18T03:49:47;-0.70;99.90
13322;DHT22;6730;46.248;6.930;2022-12-18T03:52:28;-0.60;99.90
13322;DHT22;6730;46.248;6.930;2022-12-18T03:54:57;-0.50;99.90
13322;DHT22;6730;46.248;6.930;2022-12-18T03:57:26;-0.40;99.90
13322;DHT22;6730;46.248;6.930;2022-12-18T04:00:29;-0.40;99.90
13322;DHT22;6730;46.248;6.930;2022-12-18T04:02:52;-0.40;99.90
13322;DHT22;6730;46.248;6.930;2022-12-18T04:05:19;-0.30;99.90
13322;DHT22;6730;46.248;6.930;2022-12-18T04:07:47;-0.50;99.90
13322;DHT22;6730;46.248;6.930;2022-12-18T04:10:15;-0.30;99.90
13322;DHT22;6730;46.248;6.930;2022-12-18T04:12:41;-0.70;99.90
13322;DHT22;6730;46.248;6.930;2022-12-18T04:15:07;-0.80;99.90
13322;DHT22;6730;46.248;6.930;2022-12-18T04:17:33;-0.70;99.90
13322;DHT22;6730;46.248;6.930;2022-12-18T04:19:59;-0.70;99.90
13322;DHT22;6730;46.248;6.930;2022-12-18T04:22:24;-0.60;99.90
13322;DHT22;6730;46.248;6.930;2022-12-18T04:24:50;-0.50;99.90
13322;DHT22;6730;46.248;6.930;2022-12-18T04:27:16;-0.50;99.90
13322;DHT22;6730;46.248;6.930;2022-12-18T04:29:41;-0.60;99.90
13322;DHT22;6730;46.248;6.930;2022-12-18T04:32:08;-0.70;99.90
13322;DHT22;6730;46.248;6.930;2022-12-18T04:34:33;-0.70;99.90
13322;DHT22;6730;46.248;6.930;2022-12-18T04:36:59;-0.60;99.90
13322;DHT22;6730;46.248;6.930;2022-12-18T04:39:24;-0.40;99.90
13322;DHT22;6730;46.248;6.930;2022-12-18T04:41:50;-0.40;99.90
13322;DHT22;6730;46.248;6.930;2022-12-18T04:44:16;-0.40;99.90
13322;DHT22;6730;46.248;6.930;2022-12-18T04:46:41;-0.50;99.90
13322;DHT22;6730;46.248;6.930;2022-12-18T04:49:07;-0.50;99.90
13322;DHT22;6730;46.248;6.930;2022-12-18T04:51:33;-0.50;99.90
13322;DHT22;6730;46.248;6.930;2022-12-18T04:53:58;-0.30;99.90
13322;DHT22;6730;46.248;6.930;2022-12-18T04:56:24;-0.20;99.90
13322;DHT22;6730;46.248;6.930;2022-12-18T04:58:50;-0.40;99.90
13322;DHT22;6730;46.248;6.930;2022-12-18T05:01:17;-0.60;99.90
13322;DHT22;6730;46.248;6.930;2022-12-18T05:03:43;-0.60;99.90
13322;DHT22;6730;46.248;6.930;2022-12-18T05:06:09;-0.60;99.90
13322;DHT22;6730;46.248;6.930;2022-12-18T05:08:35;-0.40;99.90
13322;DHT22;6730;46.248;6.930;2022-12-18T05:11:04;-0.60;99.90
13322;DHT22;6730;46.248;6.930;2022-12-18T05:13:31;-0.60;99.90
13322;DHT22;6730;46.248;6.930;2022-12-18T05:15:57;-0.40;99.90
13322;DHT22;6730;46.248;6.930;2022-12-18T05:18:23;-0.10;99.90
13322;DHT22;6730;46.248;6.930;2022-12-18T05:20:50;0.00;99.90
13322;DHT22;6730;46.248;6.930;2022-12-18T05:23:20;-0.40;99.90
13322;DHT22;6730;46.248;6.930;2022-12-18T05:25:51;-0.30;99.90
13322;DHT22;6730;46.248;6.930;2022-12-18T05:28:16;-0.40;99.90
13322;DHT22;6730;46.248;6.930;2022-12-18T05:30:53;-0.50;99.90
13322;DHT22;6730;46.248;6.930;2022-12-18T05:33:20;-0.50;99.90
13322;DHT22;6730;46.248;6.930;2022-12-18T05:35:54;-0.50;99.90
13322;DHT22;6730;46.248;6.930;2022-12-18T05:38:25;-0.30;99.90
13322;DHT22;6730;46.248;6.930;2022-12-18T05:40:54;-0.50;99.90
13322;DHT22;6730;46.248;6.930;2022-12-18T05:43:21;-0.60;99.90
13322;DHT22;6730;46.248;6.930;2022-12-18T05:45:53;-0.70;99.90
13322;DHT22;6730;46.248;6.930;2022-12-18T05:48:20;-0.50;99.90
13322;DHT22;6730;46.248;6.930;2022-12-18T05:50:47;-0.30;99.90
13322;DHT22;6730;46.248;6.930;2022-12-18T05:53:14;-0.30;99.90
13322;DHT22;6730;46.248;6.930;2022-12-18T05:55:42;-0.30;99.90
13322;DHT22;6730;46.248;6.930;2022-12-18T05:58:10;-0.40;99.90
13322;DHT22;6730;46.248;6.930;2022-12-18T06:00:38;-0.50;99.90
13322;DHT22;6730;46.248;6.930;2022-12-18T06:03:10;-0.70;99.90
13322;DHT22;6730;46.248;6.930;2022-12-18T06:05:40;-0.80;99.90
13322;DHT22;6730;46.248;6.930;2022-12-18T06:08:06;-0.90;99.90
13322;DHT22;6730;46.248;6.930;2022-12-18T06:10:32;-0.90;99.90
13322;DHT22;6730;46.248;6.930;2022-12-18T06:12:59;-0.60;99.90
13322;DHT22;6730;46.248;6.930;2022-12-18T06:15:25;-0.60;99.90
13322;DHT22;6730;46.248;6.930;2022-12-18T06:17:51;-0.40;99.90
13322;DHT22;6730;46.248;6.930;2022-12-18T06:20:17;-0.20;99.90
13322;DHT22;6730;46.248;6.930;2022-12-18T06:22:42;-0.20;99.90
13322;DHT22;6730;46.248;6.930;2022-12-18T06:25:08;-0.40;99.90
13322;DHT22;6730;46.248;6.930;2022-12-18T06:27:34;-0.30;99.90
13322;DHT22;6730;46.248;6.930;2022-12-18T06:30:00;-0.40;99.90
13322;DHT22;6730;46.248;6.930;2022-12-18T06:32:26;-0.50;99.90
13322;DHT22;6730;46.248;6.930;2022-12-18T06:34:52;-0.60;99.90
13322;DHT22;6730;46.248;6.930;2022-12-18T06:37:18;-0.60;99.90
13322;DHT22;6730;46.248;6.930;2022-12-18T06:39:44;-0.40;99.90
13322;DHT22;6730;46.248;6.930;2022-12-18T06:42:09;-0.10;99.90
13322;DHT22;6730;46.248;6.930;2022-12-18T06:44:35;-0.20;99.90
13322;DHT22;6730;46.248;6.930;2022-12-18T06:47:01;-0.20;99.90
13322;DHT22;6730;46.248;6.930;2022-12-18T06:49:26;0.10;99.90
13322;DHT22;6730;46.248;6.930;2022-12-18T06:51:52;-0.10;99.90
13322;DHT22;6730;46.248;6.930;2022-12-18T06:54:17;-0.20;99.90
13322;DHT22;6730;46.248;6.930;2022-12-18T06:56:45;-0.30;99.90
13322;DHT22;6730;46.248;6.930;2022-12-18T06:59:12;-0.60;99.90
13322;DHT22;6730;46.248;6.930;2022-12-18T07:01:38;-0.60;99.90
13322;DHT22;6730;46.248;6.930;2022-12-18T07:04:04;-0.50;99.90
13322;DHT22;6730;46.248;6.930;2022-12-18T07:06:30;-0.40;99.90
13322;DHT22;6730;46.248;6.930;2022-12-18T07:08:55;-0.50;99.90
13322;DHT22;6730;46.248;6.930;2022-12-18T07:11:21;-0.50;99.90
13322;DHT22;6730;46.248;6.930;2022-12-18T07:13:47;-0.60;99.90
13322;DHT22;6730;46.248;6.930;2022-12-18T07:16:18;-0.60;99.90
13322;DHT22;6730;46.248;6.930;2022-12-18T07:18:44;-0.40;99.90
13322;DHT22;6730;46.248;6.930;2022-12-18T07:21:16;-0.20;99.90
13322;DHT22;6730;46.248;6.930;2022-12-18T07:23:42;-0.20;99.90
13322;DHT22;6730;46.248;6.930;2022-12-18T07:26:10;-0.10;99.90
13322;DHT22;6730;46.248;6.930;2022-12-18T07:28:37;-0.20;99.90
13322;DHT22;6730;46.248;6.930;2022-12-18T07:31:07;-0.20;99.90
13322;DHT22;6730;46.248;6.930;2022-12-18T07:33:34;-0.10;99.90
13322;DHT22;6730;46.248;6.930;2022-12-18T07:36:03;0.10;99.90
13322;DHT22;6730;46.248;6.930;2022-12-18T07:38:30;-0.10;99.90
13322;DHT22;6730;46.248;6.930;2022-12-18T07:41:00;-0.40;99.90
13322;DHT22;6730;46.248;6.930;2022-12-18T07:43:27;-0.50;99.90
13322;DHT22;6730;46.248;6.930;2022-12-18T07:45:52;-0.60;99.90
13322;DHT22;6730;46.248;6.930;2022-12-18T07:48:18;-0.70;99.90
13322;DHT22;6730;46.248;6.930;2022-12-18T07:50:43;-0.30;99.90
13322;DHT22;6730;46.248;6.930;2022-12-18T07:53:09;-0.10;99.90
13322;DHT22;6730;46.248;6.930;2022-12-18T07:55:35;-0.30;99.90
13322;DHT22;6730;46.248;6.930;2022-12-18T07:58:02;-0.40;99.90
13322;DHT22;6730;46.248;6.930;2022-12-18T08:00:28;-0.20;99.90
13322;DHT22;6730;46.248;6.930;2022-12-18T08:02:54;0.20;99.90
13322;DHT22;6730;46.248;6.930;2022-12-18T08:05:19;0.50;99.90
13322;DHT22;6730;46.248;6.930;2022-12-18T08:07:46;0.70;99.90
13322;DHT22;6730;46.248;6.930;2022-12-18T08:10:12;1.00;99.90
13322;DHT22;6730;46.248;6.930;2022-12-18T08:12:37;1.00;99.90
13322;DHT22;6730;46.248;6.930;2022-12-18T08:15:05;1.20;99.90
13322;DHT22;6730;46.248;6.930;2022-12-18T08:17:30;1.70;99.90
13322;DHT22;6730;46.248;6.930;2022-12-18T08:19:56;2.80;99.90
13322;DHT22;6730;46.248;6.930;2022-12-18T08:22:21;3.80;99.90
13322;DHT22;6730;46.248;6.930;2022-12-18T08:24:47;4.80;99.90
13322;DHT22;6730;46.248;6.930;2022-12-18T08:27:13;5.30;99.90
13322;DHT22;6730;46.248;6.930;2022-12-18T08:29:38;6.00;99.90
13322;DHT22;6730;46.248;6.930;2022-12-18T08:32:04;6.40;99.90
13322;DHT22;6730;46.248;6.930;2022-12-18T08:34:30;7.00;99.90
13322;DHT22;6730;46.248;6.930;2022-12-18T08:36:55;7.80;99.90
13322;DHT22;6730;46.248;6.930;2022-12-18T08:39:21;8.50;99.90
13322;DHT22;6730;46.248;6.930;2022-12-18T08:41:47;9.10;99.90
13322;DHT22;6730;46.248;6.930;2022-12-18T08:44:32;9.40;99.90
13322;DHT22;6730;46.248;6.930;2022-12-18T08:47:07;9.90;99.90
13322;DHT22;6730;46.248;6.930;2022-12-18T08:49:33;9.10;99.90
13322;DHT22;6730;46.248;6.930;2022-12-18T08:51:59;8.90;99.90
13322;DHT22;6730;46.248;6.930;2022-12-18T08:54:25;8.80;99.90
13322;DHT22;6730;46.248;6.930;2022-12-18T08:56:51;9.60;99.90
13322;DHT22;6730;46.248;6.930;2022-12-18T08:59:18;9.70;99.90
13322;DHT22;6730;46.248;6.930;2022-12-18T09:01:44;9.20;99.90
13322;DHT22;6730;46.248;6.930;2022-12-18T09:04:10;9.20;99.90
13322;DHT22;6730;46.248;6.930;2022-12-18T09:06:37;9.50;99.90
13322;DHT22;6730;46.248;6.930;2022-12-18T09:09:03;9.30;99.90
13322;DHT22;6730;46.248;6.930;2022-12-18T09:11:30;9.70;99.90
13322;DHT22;6730;46.248;6.930;2022-12-18T09:13:57;10.10;99.90
13322;DHT22;6730;46.248;6.930;2022-12-18T09:16:24;11.00;99.90
13322;DHT22;6730;46.248;6.930;2022-12-18T09:18:50;11.60;99.90
13322;DHT22;6730;46.248;6.930;2022-12-18T09:21:19;11.00;96.80
13322;DHT22;6730;46.248;6.930;2022-12-18T09:23:49;10.40;99.20
13322;DHT22;6730;46.248;6.930;2022-12-18T09:26:15;10.30;98.90
13322;DHT22;6730;46.248;6.930;2022-12-18T09:28:41;10.40;99.90
13322;DHT22;6730;46.248;6.930;2022-12-18T09:31:08;9.60;99.90
13322;DHT22;6730;46.248;6.930;2022-12-18T09:33:35;9.00;99.90
13322;DHT22;6730;46.248;6.930;2022-12-18T09:36:03;7.70;99.90
13322;DHT22;6730;46.248;6.930;2022-12-18T09:38:28;7.00;99.90
13322;DHT22;6730;46.248;6.930;2022-12-18T09:40:59;7.30;99.90
13322;DHT22;6730;46.248;6.930;2022-12-18T09:43:41;8.50;99.90
13322;DHT22;6730;46.248;6.930;2022-12-18T09:46:11;10.00;99.90
13322;DHT22;6730;46.248;6.930;2022-12-18T09:48:44;10.10;99.90
13322;DHT22;6730;46.248;6.930;2022-12-18T09:51:23;9.40;99.90
13322;DHT22;6730;46.248;6.930;2022-12-18T09:54:03;8.90;99.90
13322;DHT22;6730;46.248;6.930;2022-12-18T09:56:34;9.40;99.90
13322;DHT22;6730;46.248;6.930;2022-12-18T09:59:02;8.90;99.90
13322;DHT22;6730;46.248;6.930;2022-12-18T10:01:30;9.40;99.90
13322;DHT22;6730;46.248;6.930;2022-12-18T10:03:57;10.90;99.90
13322;DHT22;6730;46.248;6.930;2022-12-18T10:14:34;9.90;99.90
13322;DHT22;6730;46.248;6.930;2022-12-18T10:17:13;9.30;99.90
13322;DHT22;6730;46.248;6.930;2022-12-18T10:22:22;10.70;99.90
13322;DHT22;6730;46.248;6.930;2022-12-18T10:27:44;10.10;98.40
13322;DHT22;6730;46.248;6.930;2022-12-18T10:30:18;9.10;99.60
13322;DHT22;6730;46.248;6.930;2022-12-18T10:32:44;9.60;99.90
13322;DHT22;6730;46.248;6.930;2022-12-18T10:35:23;9.30;99.60
13322;DHT22;6730;46.248;6.930;2022-12-18T10:43:47;9.40;99.90
13322;DHT22;6730;46.248;6.930;2022-12-18T10:46:19;8.60;99.90
13322;DHT22;6730;46.248;6.930;2022-12-18T10:54:00;7.60;99.90
13322;DHT22;6730;46.248;6.930;2022-12-18T10:56:28;7.80;99.90
13322;DHT22;6730;46.248;6.930;2022-12-18T10:59:03;7.00;99.90
13322;DHT22;6730;46.248;6.930;2022-12-18T11:01:52;5.90;99.90
13322;DHT22;6730;46.248;6.930;2022-12-18T11:04:31;6.30;99.90
13322;DHT22;6730;46.248;6.930;2022-12-18T11:07:02;7.10;99.90
13322;DHT22;6730;46.248;6.930;2022-12-18T11:09:35;8.00;99.90
13322;DHT22;6730;46.248;6.930;2022-12-18T11:12:03;8.90;99.90
13322;DHT22;6730;46.248;6.930;2022-12-18T11:14:34;8.40;99.90
13322;DHT22;6730;46.248;6.930;2022-12-18T11:17:01;7.40;99.90
13322;DHT22;6730;46.248;6.930;2022-12-18T11:19:33;7.40;99.90
13322;DHT22;6730;46.248;6.930;2022-12-18T11:22:01;7.60;99.90
13322;DHT22;6730;46.248;6.930;2022-12-18T11:24:35;8.30;99.90
13322;DHT22;6730;46.248;6.930;2022-12-18T11:27:06;8.60;99.90
13322;DHT22;6730;46.248;6.930;2022-12-18T11:29:40;7.80;99.90
13322;DHT22;6730;46.248;6.930;2022-12-18T11:35:17;6.80;99.90
13322;DHT22;6730;46.248;6.930;2022-12-18T11:37:49;6.60;99.90
13322;DHT22;6730;46.248;6.930;2022-12-18T11:40:22;6.90;99.90
13322;DHT22;6730;46.248;6.930;2022-12-18T11:43:13;7.20;99.90
13322;DHT22;6730;46.248;6.930;2022-12-18T11:46:01;6.30;99.90
13322;DHT22;6730;46.248;6.930;2022-12-18T11:48:32;5.90;99.90
13322;DHT22;6730;46.248;6.930;2022-12-18T11:51:02;5.60;99.90
13322;DHT22;6730;46.248;6.930;2022-12-18T11:53:30;5.80;99.90
13322;DHT22;6730;46.248;6.930;2022-12-18T11:58:50;6.50;99.90
13322;DHT22;6730;46.248;6.930;2022-12-18T12:04:08;6.80;99.90
13322;DHT22;6730;46.248;6.930;2022-12-18T12:07:04;6.70;99.90
13322;DHT22;6730;46.248;6.930;2022-12-18T12:09:42;7.40;99.90
13322;DHT22;6730;46.248;6.930;2022-12-18T12:12:20;7.80;99.90
13322;DHT22;6730;46.248;6.930;2022-12-18T12:15:18;8.60;99.90
13322;DHT22;6730;46.248;6.930;2022-12-18T12:21:04;9.20;98.00
13322;DHT22;6730;46.248;6.930;2022-12-18T12:29:30;7.50;99.90
13322;DHT22;6730;46.248;6.930;2022-12-18T12:37:39;7.30;99.90
13322;DHT22;6730;46.248;6.930;2022-12-18T12:40:16;6.90;99.90
13322;DHT22;6730;46.248;6.930;2022-12-18T12:42:54;6.60;99.90
13322;DHT22;6730;46.248;6.930;2022-12-18T12:51:26;8.40;99.90
13322;DHT22;6730;46.248;6.930;2022-12-18T12:53:55;9.10;99.90
13322;DHT22;6730;46.248;6.930;2022-12-18T12:56:22;10.50;99.10
13322;DHT22;6730;46.248;6.930;2022-12-18T12:58:58;10.10;98.90
13322;DHT22;6730;46.248;6.930;2022-12-18T13:01:32;9.50;99.00
13322;DHT22;6730;46.248;6.930;2022-12-18T13:09:09;7.70;99.90
13322;DHT22;6730;46.248;6.930;2022-12-18T13:14:33;5.70;99.90
13322;DHT22;6730;46.248;6.930;2022-12-18T13:17:15;4.60;99.90
13322;DHT22;6730;46.248;6.930;2022-12-18T13:19:41;4.20;99.90
13322;DHT22;6730;46.248;6.930;2022-12-18T13:22:24;4.20;99.90
13322;DHT22;6730;46.248;6.930;2022-12-18T13:24:50;4.30;99.90
13322;DHT22;6730;46.248;6.930;2022-12-18T13:27:45;4.70;99.90
13322;DHT22;6730;46.248;6.930;2022-12-18T13:38:23;3.80;99.90
13322;DHT22;6730;46.248;6.930;2022-12-18T13:40:59;3.80;99.90
13322;DHT22;6730;46.248;6.930;2022-12-18T13:46:06;3.50;99.90
13322;DHT22;6730;46.248;6.930;2022-12-18T13:51:35;3.40;99.90
13322;DHT22;6730;46.248;6.930;2022-12-18T13:54:06;3.30;99.90
13322;DHT22;6730;46.248;6.930;2022-12-18T13:56:44;3.20;99.90
13322;DHT22;6730;46.248;6.930;2022-12-18T13:59:21;3.30;99.90
13322;DHT22;6730;46.248;6.930;2022-12-18T14:01:53;3.20;99.90
13322;DHT22;6730;46.248;6.930;2022-12-18T14:04:27;3.20;99.90
13322;DHT22;6730;46.248;6.930;2022-12-18T14:07:06;3.30;99.90
13322;DHT22;6730;46.248;6.930;2022-12-18T14:09:39;3.40;99.90
13322;DHT22;6730;46.248;6.930;2022-12-18T14:12:06;3.40;99.90
13322;DHT22;6730;46.248;6.930;2022-12-18T14:14:52;3.30;99.90
13322;DHT22;6730;46.248;6.930;2022-12-18T14:17:18;3.20;99.90
13322;DHT22;6730;46.248;6.930;2022-12-18T14:19:46;3.60;99.90
13322;DHT22;6730;46.248;6.930;2022-12-18T14:24:43;4.40;99.90
13322;DHT22;6730;46.248;6.930;2022-12-18T14:27:27;4.70;99.90
13322;DHT22;6730;46.248;6.930;2022-12-18T14:29:52;5.10;99.90
13322;DHT22;6730;46.248;6.930;2022-12-18T14:32:19;5.10;99.90
13322;DHT22;6730;46.248;6.930;2022-12-18T14:34:51;5.10;99.90
13322;DHT22;6730;46.248;6.930;2022-12-18T14:37:21;5.20;99.90
13322;DHT22;6730;46.248;6.930;2022-12-18T14:39:55;5.30;99.90
13322;DHT22;6730;46.248;6.930;2022-12-18T14:42:22;5.50;99.90
13322;DHT22;6730;46.248;6.930;2022-12-18T14:44:48;5.50;99.90
13322;DHT22;6730;46.248;6.930;2022-12-18T14:47:15;5.50;99.90
13322;DHT22;6730;46.248;6.930;2022-12-18T14:49:42;5.60;99.90
13322;DHT22;6730;46.248;6.930;2022-12-18T14:52:27;5.50;99.90
13322;DHT22;6730;46.248;6.930;2022-12-18T14:54:53;5.40;99.90
13322;DHT22;6730;46.248;6.930;2022-12-18T14:57:24;5.20;99.90
13322;DHT22;6730;46.248;6.930;2022-12-18T14:59:51;5.00;99.90
13322;DHT22;6730;46.248;6.930;2022-12-18T15:02:25;4.60;99.90
13322;DHT22;6730;46.248;6.930;2022-12-18T15:07:41;5.10;99.90
13322;DHT22;6730;46.248;6.930;2022-12-18T15:10:13;4.80;99.90
13322;DHT22;6730;46.248;6.930;2022-12-18T15:20:40;4.80;99.90
13322;DHT22;6730;46.248;6.930;2022-12-18T15:26:08;5.00;99.90
13322;DHT22;6730;46.248;6.930;2022-12-18T15:28:39;4.70;99.90
13322;DHT22;6730;46.248;6.930;2022-12-18T15:33:42;4.10;99.90
13322;DHT22;6730;46.248;6.930;2022-12-18T15:36:15;4.10;99.90
13322;DHT22;6730;46.248;6.930;2022-12-18T15:38:45;4.00;99.90
13322;DHT22;6730;46.248;6.930;2022-12-18T15:41:14;4.10;99.90
13322;DHT22;6730;46.248;6.930;2022-12-18T15:43:41;3.90;99.90
13322;DHT22;6730;46.248;6.930;2022-12-18T15:46:15;4.40;99.90
13322;DHT22;6730;46.248;6.930;2022-12-18T15:48:47;4.60;99.90
13322;DHT22;6730;46.248;6.930;2022-12-18T15:51:32;4.70;99.90
13322;DHT22;6730;46.248;6.930;2022-12-18T15:54:00;4.90;99.90
13322;DHT22;6730;46.248;6.930;2022-12-18T15:56:26;5.10;99.90
13322;DHT22;6730;46.248;6.930;2022-12-18T15:59:13;4.40;99.90
13322;DHT22;6730;46.248;6.930;2022-12-18T16:01:39;3.00;99.90
13322;DHT22;6730;46.248;6.930;2022-12-18T16:04:05;3.20;99.90
13322;DHT22;6730;46.248;6.930;2022-12-18T16:06:31;3.30;99.90
13322;DHT22;6730;46.248;6.930;2022-12-18T16:08:57;3.40;99.90
13322;DHT22;6730;46.248;6.930;2022-12-18T16:11:27;3.80;99.90
13322;DHT22;6730;46.248;6.930;2022-12-18T16:14:15;4.00;99.90
13322;DHT22;6730;46.248;6.930;2022-12-18T16:16:41;4.20;99.90
13322;DHT22;6730;46.248;6.930;2022-12-18T16:19:07;4.20;99.90
13322;DHT22;6730;46.248;6.930;2022-12-18T16:21:32;3.30;99.90
13322;DHT22;6730;46.248;6.930;2022-12-18T16:23:58;3.50;99.90
13322;DHT22;6730;46.248;6.930;2022-12-18T16:26:24;3.50;99.90
13322;DHT22;6730;46.248;6.930;2022-12-18T16:28:49;3.80;99.90
13322;DHT22;6730;46.248;6.930;2022-12-18T16:31:15;4.00;99.90
13322;DHT22;6730;46.248;6.930;2022-12-18T16:33:41;4.20;99.90
13322;DHT22;6730;46.248;6.930;2022-12-18T16:36:07;4.40;99.90
13322;DHT22;6730;46.248;6.930;2022-12-18T16:38:33;4.50;99.90
13322;DHT22;6730;46.248;6.930;2022-12-18T16:40:58;4.60;99.90
13322;DHT22;6730;46.248;6.930;2022-12-18T16:43:43;4.60;99.90
13322;DHT22;6730;46.248;6.930;2022-12-18T16:46:08;4.60;99.90
13322;DHT22;6730;46.248;6.930;2022-12-18T16:48:34;4.40;99.90
13322;DHT22;6730;46.248;6.930;2022-12-18T16:51:02;4.30;99.90
13322;DHT22;6730;46.248;6.930;2022-12-18T16:53:28;4.40;99.90
13322;DHT22;6730;46.248;6.930;2022-12-18T16:55:55;4.40;99.90
13322;DHT22;6730;46.248;6.930;2022-12-18T16:58:20;4.30;99.90
13322;DHT22;6730;46.248;6.930;2022-12-18T17:00:46;4.30;99.90
13322;DHT22;6730;46.248;6.930;2022-12-18T17:03:12;4.30;99.90
13322;DHT22;6730;46.248;6.930;2022-12-18T17:05:38;4.10;99.90
13322;DHT22;6730;46.248;6.930;2022-12-18T17:08:04;4.10;99.90
13322;DHT22;6730;46.248;6.930;2022-12-18T17:10:29;3.90;99.90
13322;DHT22;6730;46.248;6.930;2022-12-18T17:12:55;3.70;99.90
13322;DHT22;6730;46.248;6.930;2022-12-18T17:15:21;3.80;99.90
13322;DHT22;6730;46.248;6.930;2022-12-18T17:17:46;3.70;99.90
13322;DHT22;6730;46.248;6.930;2022-12-18T17:20:12;3.10;99.90
13322;DHT22;6730;46.248;6.930;2022-12-18T17:22:38;2.60;99.90
13322;DHT22;6730;46.248;6.930;2022-12-18T17:25:04;2.60;99.90
13322;DHT22;6730;46.248;6.930;2022-12-18T17:27:30;2.50;99.90
13322;DHT22;6730;46.248;6.930;2022-12-18T17:29:55;2.50;99.90
13322;DHT22;6730;46.248;6.930;2022-12-18T17:32:21;2.50;99.90
13322;DHT22;6730;46.248;6.930;2022-12-18T17:34:46;2.70;99.90
13322;DHT22;6730;46.248;6.930;2022-12-18T17:37:12;3.10;99.90
13322;DHT22;6730;46.248;6.930;2022-12-18T17:39:38;3.20;99.90
13322;DHT22;6730;46.248;6.930;2022-12-18T17:42:04;3.20;99.90
13322;DHT22;6730;46.248;6.930;2022-12-18T17:44:30;2.90;99.90
13322;DHT22;6730;46.248;6.930;2022-12-18T17:46:55;2.80;99.90
13322;DHT22;6730;46.248;6.930;2022-12-18T17:49:21;3.00;99.90
13322;DHT22;6730;46.248;6.930;2022-12-18T17:51:47;3.00;99.90
13322;DHT22;6730;46.248;6.930;2022-12-18T17:54:13;2.90;99.90
13322;DHT22;6730;46.248;6.930;2022-12-18T17:56:39;3.00;99.90
13322;DHT22;6730;46.248;6.930;2022-12-18T17:59:05;3.20;99.90
13322;DHT22;6730;46.248;6.930;2022-12-18T18:01:31;3.40;99.90
13322;DHT22;6730;46.248;6.930;2022-12-18T18:03:56;3.00;99.90
13322;DHT22;6730;46.248;6.930;2022-12-18T18:06:24;2.70;99.90
13322;DHT22;6730;46.248;6.930;2022-12-18T18:08:50;2.90;99.90
13322;DHT22;6730;46.248;6.930;2022-12-18T18:11:18;3.10;99.90
13322;DHT22;6730;46.248;6.930;2022-12-18T18:14:06;3.50;99.90
13322;DHT22;6730;46.248;6.930;2022-12-18T18:16:41;3.90;99.90
13322;DHT22;6730;46.248;6.930;2022-12-18T18:19:22;4.00;99.90